Time;durP1;ratioP1;P1;durP2;ratioP2;P2;SDS_P1;SDS_P2;PMS_P1;PMS_P2;Temp;Humidity;BMP_temperature;BMP_pressure;BME280_temperature;BME280_humidity;BME280_pressure;Samples;Min_cycle;Max_cycle;Signal;HPM_P1;HPM_P2
2023/01/19 00:00:42;;;;;;;10.83;7.37;;;;;;;;;;5054846;28;20321;-87
2023/01/19 00:03:14;;;;;;;12.57;7.70;;;;;;;;;;5055128;28;20217;-86
2023/01/19 00:05:42;;;;;;;8.70;6.93;;;;;;;;;;5058328;28;20236;-86
2023/01/19 00:08:14;;;;;;;12.37;7.60;;;;;;;;;;5074656;28;20302;-86
2023/01/19 00:10:41;;;;;;;11.90;8.53;;;;;;;;;;5074124;28;20258;-86
2023/01/19 00:13:08;;;;;;;9.00;7.20;;;;;;;;;;5074581;28;20220;-86
2023/01/19 00:15:35;;;;;;;12.53;8.30;;;;;;;;;;5074234;28;20240;-86
2023/01/19 00:18:04;;;;;;;11.03;7.63;;;;;;;;;;5074662;28;20244;-87
2023/01/19 00:20:34;;;;;;;13.47;8.37;;;;;;;;;;5073841;28;20597;-85
2023/01/19 00:23:01;;;;;;;11.77;7.57;;;;;;;;;;5074856;28;20273;-86
2023/01/19 00:25:28;;;;;;;12.63;8.37;;;;;;;;;;5074053;28;20622;-86
2023/01/19 00:27:55;;;;;;;10.60;8.30;;;;;;;;;;5074556;28;20233;-86
2023/01/19 00:30:22;;;;;;;12.90;8.00;;;;;;;;;;5073948;28;20236;-85
2023/01/19 00:32:50;;;;;;;11.73;7.27;;;;;;;;;;5075059;28;20237;-85
2023/01/19 00:35:18;;;;;;;11.10;7.27;;;;;;;;;;5074016;28;20237;-86
2023/01/19 00:37:45;;;;;;;13.40;7.50;;;;;;;;;;5074219;28;20221;-86
2023/01/19 00:40:13;;;;;;;15.13;8.33;;;;;;;;;;5073982;28;20237;-86
2023/01/19 00:42:43;;;;;;;12.53;8.30;;;;;;;;;;5074130;28;20213;-86
2023/01/19 00:45:11;;;;;;;11.13;8.30;;;;;;;;;;5074007;28;20704;-86
2023/01/19 00:47:39;;;;;;;11.07;7.57;;;;;;;;;;5074034;28;20705;-85
2023/01/19 00:50:06;;;;;;;11.67;7.80;;;;;;;;;;5073829;28;20359;-85
2023/01/19 00:52:35;;;;;;;9.53;7.30;;;;;;;;;;5073734;28;20205;-85
2023/01/19 00:55:02;;;;;;;14.30;8.37;;;;;;;;;;5073474;28;20236;-85
2023/01/19 00:57:29;;;;;;;9.97;7.27;;;;;;;;;;5071224;28;20241;-85
2023/01/19 00:59:56;;;;;;;10.50;7.43;;;;;;;;;;5053555;28;20248;-86
2023/01/19 01:02:23;;;;;;;10.47;6.20;;;;;;;;;;5053512;28;20210;-85
2023/01/19 01:04:53;;;;;;;11.03;6.87;;;;;;;;;;5052342;28;20256;-86
2023/01/19 01:07:21;;;;;;;11.70;7.47;;;;;;;;;;5053755;28;20234;-85
2023/01/19 01:09:49;;;;;;;10.40;7.87;;;;;;;;;;5053347;28;20632;-85
2023/01/19 01:12:16;;;;;;;11.53;8.63;;;;;;;;;;5053676;28;20235;-85
2023/01/19 01:14:43;;;;;;;14.90;7.53;;;;;;;;;;5053358;28;20209;-85
2023/01/19 01:17:13;;;;;;;9.97;7.10;;;;;;;;;;5053624;28;20209;-86
2023/01/19 01:19:40;;;;;;;12.37;7.40;;;;;;;;;;5052975;28;20257;-85
2023/01/19 01:22:07;;;;;;;9.93;7.40;;;;;;;;;;5053108;28;20216;-86
2023/01/19 01:24:34;;;;;;;13.03;7.47;;;;;;;;;;5052944;28;20210;-86
2023/01/19 01:27:02;;;;;;;8.50;7.23;;;;;;;;;;5067948;28;20689;-85
2023/01/19 01:29:29;;;;;;;11.87;8.00;;;;;;;;;;5072665;28;20204;-85
2023/01/19 01:31:56;;;;;;;12.20;8.33;;;;;;;;;;5074190;28;20221;-85
2023/01/19 01:34:23;;;;;;;9.37;8.13;;;;;;;;;;5073595;28;20212;-86
2023/01/19 01:36:50;;;;;;;12.33;8.93;;;;;;;;;;5073039;28;20233;-85
2023/01/19 01:39:17;;;;;;;11.27;7.63;;;;;;;;;;5073619;28;20225;-85
2023/01/19 01:41:45;;;;;;;15.03;8.77;;;;;;;;;;5072704;28;20229;-85
2023/01/19 01:44:36;;;;;;;9.60;7.50;;;;;;;;;;5073467;28;20201;-85
2023/01/19 01:47:05;;;;;;;11.90;8.20;;;;;;;;;;5072622;28;20232;-85
2023/01/19 01:49:32;;;;;;;11.57;8.20;;;;;;;;;;5073091;28;20205;-86
2023/01/19 01:51:59;;;;;;;13.90;9.10;;;;;;;;;;5073433;28;20205;-85
2023/01/19 01:54:27;;;;;;;9.80;8.53;;;;;;;;;;5072941;28;20696;-85
2023/01/19 01:56:56;;;;;;;15.20;8.77;;;;;;;;;;5072765;28;20237;-85
2023/01/19 01:59:25;;;;;;;10.70;7.80;;;;;;;;;;5072998;28;20681;-85
2023/01/19 02:04:40;;;;;;;14.57;8.83;;;;;;;;;;5071126;28;20197;-86
2023/01/19 14:12:11;;;;;;;11.47;7.93;;;;;;;;;;5010516;28;20207;-88
2023/01/19 14:14:39;;;;;;;4.60;4.23;;;;;;;;;;5013056;28;20608;-84
2023/01/19 14:17:17;;;;;;;15.50;10.80;;;;;;;;;;5019506;28;20207;-85
2023/01/19 14:19:52;;;;;;;11.83;9.20;;;;;;;;;;5012018;28;20245;-83
2023/01/19 14:22:19;;;;;;;14.80;10.90;;;;;;;;;;5017283;28;20201;-84
2023/01/19 14:24:46;;;;;;;13.73;10.63;;;;;;;;;;5024153;28;20235;-83
2023/01/19 14:27:22;;;;;;;15.43;10.07;;;;;;;;;;5012875;28;20213;-86
2023/01/19 14:29:52;;;;;;;12.70;9.50;;;;;;;;;;5012339;28;20310;-83
2023/01/19 14:32:20;;;;;;;8.17;7.10;;;;;;;;;;5011736;28;20660;-84
2023/01/19 14:34:49;;;;;;;9.90;7.87;;;;;;;;;;5011382;28;20231;-83
2023/01/19 14:37:18;;;;;;;14.23;10.23;;;;;;;;;;5017009;28;20210;-84
2023/01/19 14:39:46;;;;;;;15.53;10.77;;;;;;;;;;5011441;28;20699;-83
2023/01/19 14:42:16;;;;;;;13.00;10.30;;;;;;;;;;5011768;28;20203;-83
2023/01/19 14:44:47;;;;;;;9.17;6.77;;;;;;;;;;5011650;28;20570;-82
2023/01/19 14:47:22;;;;;;;16.10;10.57;;;;;;;;;;5012019;28;20269;-83
2023/01/19 14:49:49;;;;;;;13.50;9.20;;;;;;;;;;5012358;28;20304;-86
2023/01/19 14:52:21;;;;;;;12.43;9.87;;;;;;;;;;5012061;28;20215;-83
2023/01/19 14:54:49;;;;;;;13.90;9.70;;;;;;;;;;5011708;28;20231;-84
2023/01/19 14:57:16;;;;;;;14.97;9.83;;;;;;;;;;5011569;28;20242;-86
2023/01/19 14:59:48;;;;;;;14.37;9.77;;;;;;;;;;5011218;28;20675;-83
2023/01/19 15:02:17;;;;;;;13.97;9.77;;;;;;;;;;5011513;28;20636;-83
2023/01/19 15:04:44;;;;;;;15.03;9.57;;;;;;;;;;5011320;28;20245;-83
2023/01/19 15:07:16;;;;;;;12.77;8.87;;;;;;;;;;5011825;28;20204;-83
2023/01/19 15:09:44;;;;;;;17.50;12.00;;;;;;;;;;5010840;28;20211;-84
2023/01/19 15:12:12;;;;;;;14.77;10.23;;;;;;;;;;5011645;28;20579;-83
2023/01/19 15:14:39;;;;;;;19.27;10.37;;;;;;;;;;5011153;28;20663;-83
2023/01/19 15:17:10;;;;;;;15.03;10.00;;;;;;;;;;5011684;28;20221;-83
2023/01/19 15:19:37;;;;;;;14.37;8.40;;;;;;;;;;5011321;28;20231;-84
2023/01/19 15:22:09;;;;;;;16.13;10.70;;;;;;;;;;5011852;28;20218;-84
2023/01/19 15:24:38;;;;;;;11.13;8.80;;;;;;;;;;5015402;28;20207;-83
2023/01/19 15:27:05;;;;;;;11.30;8.37;;;;;;;;;;5015541;28;20305;-83
2023/01/19 15:29:32;;;;;;;16.30;10.20;;;;;;;;;;5014646;28;20238;-84
2023/01/19 15:32:01;;;;;;;13.17;9.57;;;;;;;;;;5015718;28;20211;-83
2023/01/19 15:34:29;;;;;;;13.93;9.87;;;;;;;;;;5027101;28;20203;-83
2023/01/19 15:36:56;;;;;;;11.73;9.13;;;;;;;;;;5027700;28;20607;-83
2023/01/19 15:39:24;;;;;;;10.47;8.00;;;;;;;;;;5027601;28;20238;-84
2023/01/19 15:41:52;;;;;;;10.83;9.00;;;;;;;;;;5036052;28;20704;-86
2023/01/19 15:44:19;;;;;;;13.53;10.47;;;;;;;;;;5024742;28;20562;-84
2023/01/19 15:46:46;;;;;;;16.20;9.70;;;;;;;;;;5014578;28;20234;-85
2023/01/19 15:49:13;;;;;;;13.70;10.13;;;;;;;;;;5015586;28;20226;-84
2023/01/19 15:51:41;;;;;;;10.07;8.40;;;;;;;;;;5016459;28;20250;-85
2023/01/19 15:54:09;;;;;;;13.67;10.10;;;;;;;;;;5016128;28;20207;-85
2023/01/19 15:56:36;;;;;;;15.07;10.17;;;;;;;;;;5015844;28;20262;-86
2023/01/19 15:59:04;;;;;;;14.53;11.30;;;;;;;;;;5020196;28;20206;-84
2023/01/19 16:01:32;;;;;;;13.03;9.87;;;;;;;;;;5037439;28;20587;-86
2023/01/19 16:04:00;;;;;;;12.13;9.90;;;;;;;;;;5037986;28;20269;-86
2023/01/19 16:06:31;;;;;;;11.50;8.40;;;;;;;;;;4997966;28;20270;-88
2023/01/19 16:09:00;;;;;;;12.70;9.30;;;;;;;;;;5004452;28;20234;-85
2023/01/19 16:11:28;;;;;;;15.37;11.47;;;;;;;;;;5020153;28;20713;-84
2023/01/19 16:13:55;;;;;;;13.40;10.03;;;;;;;;;;5014667;28;20643;-84
2023/01/19 16:16:23;;;;;;;17.70;11.67;;;;;;;;;;5014247;28;20242;-84
2023/01/19 16:18:50;;;;;;;13.37;10.63;;;;;;;;;;5015432;28;20203;-85
2023/01/19 16:21:18;;;;;;;15.33;11.57;;;;;;;;;;5015163;28;20711;-85
2023/01/19 16:23:45;;;;;;;17.53;11.43;;;;;;;;;;5016771;28;20255;-85
2023/01/19 16:26:28;;;;;;;16.40;11.57;;;;;;;;;;5016308;28;20699;-87
2023/01/19 16:29:00;;;;;;;17.87;11.30;;;;;;;;;;5015290;28;20226;-85
2023/01/19 16:31:27;;;;;;;17.27;11.53;;;;;;;;;;5022791;28;20238;-85
2023/01/19 16:33:54;;;;;;;17.30;11.23;;;;;;;;;;5015394;28;20203;-85
2023/01/19 16:36:24;;;;;;;19.63;12.83;;;;;;;;;;5014893;28;20261;-86
2023/01/19 16:38:51;;;;;;;22.03;13.00;;;;;;;;;;5015985;28;20207;-86
2023/01/19 16:41:21;;;;;;;16.57;11.70;;;;;;;;;;5015582;28;20239;-85
2023/01/19 16:43:52;;;;;;;20.57;13.37;;;;;;;;;;5016780;28;20195;-86
2023/01/19 16:46:27;;;;;;;21.00;12.37;;;;;;;;;;5014625;28;20702;-86
2023/01/19 16:48:56;;;;;;;21.77;13.90;;;;;;;;;;4997553;28;20226;-87
2023/01/19 16:51:25;;;;;;;22.77;14.40;;;;;;;;;;4996901;28;20261;-86
2023/01/19 16:53:53;;;;;;;20.50;13.77;;;;;;;;;;4997332;28;20199;-86
2023/01/19 16:56:21;;;;;;;59.37;29.23;;;;;;;;;;4996632;28;20249;-86
2023/01/19 16:58:53;;;;;;;48.60;26.53;;;;;;;;;;4997077;28;20595;-86
2023/01/19 17:01:23;;;;;;;22.97;14.83;;;;;;;;;;4997819;28;20245;-86
2023/01/19 17:03:59;;;;;;;19.63;13.73;;;;;;;;;;5008857;28;20295;-86
2023/01/19 17:06:27;;;;;;;25.07;15.97;;;;;;;;;;5016352;28;20242;-87
2023/01/19 17:08:54;;;;;;;22.30;14.73;;;;;;;;;;5019145;28;20294;-87
2023/01/19 17:11:22;;;;;;;25.20;14.97;;;;;;;;;;5033230;28;20242;-86
2023/01/19 17:13:50;;;;;;;21.77;16.33;;;;;;;;;;5035416;28;20203;-87
2023/01/19 17:16:17;;;;;;;22.37;13.50;;;;;;;;;;5031155;28;20250;-87
2023/01/19 17:18:44;;;;;;;22.00;14.67;;;;;;;;;;5017477;28;20569;-86
2023/01/19 17:21:16;;;;;;;20.43;14.20;;;;;;;;;;5016062;28;20238;-86
2023/01/19 17:23:44;;;;;;;17.57;12.53;;;;;;;;;;4999404;28;20211;-86
2023/01/19 17:26:11;;;;;;;19.87;13.93;;;;;;;;;;4996944;28;20245;-87
2023/01/19 17:28:38;;;;;;;12.13;9.50;;;;;;;;;;5003047;28;20238;-86
2023/01/19 17:31:06;;;;;;;17.97;12.10;;;;;;;;;;5014610;28;20257;-87
2023/01/19 17:33:33;;;;;;;19.63;13.07;;;;;;;;;;5014456;28;20209;-86
2023/01/19 17:36:02;;;;;;;10.93;8.70;;;;;;;;;;5014202;28;20230;-87
2023/01/19 17:38:31;;;;;;;14.20;10.77;;;;;;;;;;5015392;28;20218;-86
2023/01/19 17:40:58;;;;;;;19.87;12.17;;;;;;;;;;5014667;28;20249;-86
2023/01/19 17:43:25;;;;;;;12.93;9.57;;;;;;;;;;5014456;28;20206;-86
2023/01/19 17:45:52;;;;;;;20.73;14.57;;;;;;;;;;5013127;28;20246;-86
2023/01/19 17:48:19;;;;;;;19.10;12.80;;;;;;;;;;5012763;28;20206;-86
2023/01/19 17:50:47;;;;;;;18.63;13.23;;;;;;;;;;5013050;28;20911;-86
2023/01/19 17:53:15;;;;;;;13.63;8.40;;;;;;;;;;5013995;28;20269;-85
2023/01/19 17:55:43;;;;;;;14.77;10.70;;;;;;;;;;5012728;28;20234;-85
2023/01/19 17:58:10;;;;;;;16.73;12.63;;;;;;;;;;5013244;28;20204;-85
2023/01/19 18:00:37;;;;;;;23.00;14.17;;;;;;;;;;5012672;28;20241;-85
2023/01/19 18:03:04;;;;;;;20.77;13.07;;;;;;;;;;5012177;28;20311;-82
2023/01/19 18:05:31;;;;;;;18.30;12.30;;;;;;;;;;5013137;28;20242;-86
2023/01/19 18:08:08;;;;;;;27.87;18.93;;;;;;;;;;5013786;28;20701;-86
2023/01/19 18:10:36;;;;;;;17.10;12.33;;;;;;;;;;5013219;28;20238;-86
2023/01/19 18:13:05;;;;;;;19.00;12.27;;;;;;;;;;5013126;28;20207;-85
2023/01/19 18:15:48;;;;;;;16.90;13.43;;;;;;;;;;5012618;28;20242;-85
2023/01/19 18:18:15;;;;;;;17.57;12.53;;;;;;;;;;5014302;28;20194;-87
2023/01/19 18:20:43;;;;;;;20.37;13.73;;;;;;;;;;5013546;28;20246;-86
2023/01/19 18:23:10;;;;;;;19.53;12.97;;;;;;;;;;5014138;28;20212;-86
2023/01/19 18:25:38;;;;;;;16.87;12.30;;;;;;;;;;5013252;28;20264;-87
2023/01/19 18:28:06;;;;;;;17.40;12.17;;;;;;;;;;5014183;28;20570;-87
2023/01/19 18:30:40;;;;;;;17.30;13.57;;;;;;;;;;5012775;28;20253;-85
2023/01/19 18:33:07;;;;;;;23.83;14.17;;;;;;;;;;5013279;28;20263;-85
2023/01/19 18:35:34;;;;;;;16.40;12.77;;;;;;;;;;5012515;28;20246;-86
2023/01/19 18:38:02;;;;;;;23.83;16.50;;;;;;;;;;5013545;28;20305;-86
2023/01/19 18:40:29;;;;;;;19.83;14.33;;;;;;;;;;5012670;28;20239;-85
2023/01/19 18:42:56;;;;;;;20.77;15.27;;;;;;;;;;5012620;28;20694;-85
2023/01/19 18:45:24;;;;;;;20.17;13.97;;;;;;;;;;5012531;28;20239;-84
2023/01/19 18:47:51;;;;;;;24.50;16.63;;;;;;;;;;5012812;28;20202;-85
2023/01/19 18:50:19;;;;;;;21.03;14.00;;;;;;;;;;5012391;28;20243;-84
2023/01/19 18:52:47;;;;;;;27.63;17.03;;;;;;;;;;5012504;28;20210;-84
2023/01/19 18:55:15;;;;;;;26.80;17.23;;;;;;;;;;5012275;28;20231;-85
2023/01/19 18:57:42;;;;;;;22.27;14.90;;;;;;;;;;5013185;28;20211;-87
2023/01/19 19:00:09;;;;;;;22.97;15.20;;;;;;;;;;5012600;28;20242;-86
2023/01/19 19:02:37;;;;;;;22.67;14.57;;;;;;;;;;5012497;28;20666;-85
2023/01/19 19:05:05;;;;;;;19.60;11.57;;;;;;;;;;5011794;28;20269;-87
2023/01/19 19:07:33;;;;;;;19.97;13.57;;;;;;;;;;5013157;28;20199;-85
2023/01/19 19:10:00;;;;;;;20.27;13.13;;;;;;;;;;5011706;28;20650;-85
2023/01/19 19:12:27;;;;;;;23.10;13.57;;;;;;;;;;5012255;28;20192;-85
2023/01/19 19:14:54;;;;;;;20.97;14.33;;;;;;;;;;5011839;28;20235;-85
2023/01/19 19:17:21;;;;;;;25.33;16.77;;;;;;;;;;5012162;28;20199;-83
2023/01/19 19:19:53;;;;;;;18.33;11.53;;;;;;;;;;4992493;28;20239;-84
2023/01/19 19:22:21;;;;;;;15.60;12.03;;;;;;;;;;4992751;28;20196;-84
2023/01/19 19:24:48;;;;;;;19.97;13.53;;;;;;;;;;4992554;28;20250;-85
2023/01/19 19:27:20;;;;;;;22.03;16.63;;;;;;;;;;4992928;28;20242;-85
2023/01/19 19:29:47;;;;;;;21.23;13.77;;;;;;;;;;4992525;28;20712;-85
2023/01/19 19:32:19;;;;;;;25.27;15.43;;;;;;;;;;4993733;28;20216;-85
2023/01/19 19:34:48;;;;;;;23.83;14.87;;;;;;;;;;4994103;28;20290;-85
2023/01/19 19:37:15;;;;;;;20.40;13.37;;;;;;;;;;5009055;28;20211;-86
2023/01/19 19:39:44;;;;;;;20.20;13.50;;;;;;;;;;5016953;28;20209;-86
2023/01/19 19:42:11;;;;;;;21.93;14.60;;;;;;;;;;5014257;28;20214;-86
2023/01/19 19:44:38;;;;;;;19.57;15.20;;;;;;;;;;5013297;28;20222;-85
2023/01/19 19:47:06;;;;;;;25.17;15.27;;;;;;;;;;5013116;28;20258;-85
2023/01/19 19:49:33;;;;;;;20.93;14.70;;;;;;;;;;5012232;28;20246;-85
2023/01/19 19:52:00;;;;;;;22.47;14.37;;;;;;;;;;5012426;28;20207;-85
2023/01/19 19:54:27;;;;;;;22.50;16.10;;;;;;;;;;5011613;28;20286;-85
2023/01/19 19:56:56;;;;;;;28.10;20.17;;;;;;;;;;5012351;28;20286;-84
2023/01/19 19:59:23;;;;;;;24.53;15.20;;;;;;;;;;5011847;28;20212;-83
2023/01/19 20:01:52;;;;;;;22.53;14.53;;;;;;;;;;5011599;28;20231;-84
2023/01/19 20:04:21;;;;;;;20.00;12.77;;;;;;;;;;5011591;28;20211;-85
2023/01/19 20:06:49;;;;;;;16.97;13.10;;;;;;;;;;5011451;28;20258;-84
2023/01/19 20:09:17;;;;;;;15.93;11.30;;;;;;;;;;5012909;28;20228;-85
2023/01/19 20:11:45;;;;;;;20.63;12.90;;;;;;;;;;5014711;28;20610;-85
2023/01/19 20:14:14;;;;;;;19.03;13.27;;;;;;;;;;5016021;28;20211;-86
2023/01/19 20:16:42;;;;;;;15.30;11.53;;;;;;;;;;5015364;28;20241;-86
2023/01/19 20:19:09;;;;;;;16.20;11.57;;;;;;;;;;5016290;28;20213;-84
2023/01/19 20:21:37;;;;;;;20.90;13.97;;;;;;;;;;5015065;28;20248;-86
2023/01/19 20:24:05;;;;;;;21.70;14.33;;;;;;;;;;5015870;28;20222;-86
2023/01/19 20:26:34;;;;;;;17.40;12.27;;;;;;;;;;5015164;28;20258;-86
2023/01/19 20:29:04;;;;;;;16.70;11.37;;;;;;;;;;5016083;28;20210;-86
2023/01/19 20:31:34;;;;;;;19.40;11.27;;;;;;;;;;5015232;28;20246;-86
2023/01/19 20:34:03;;;;;;;24.30;13.70;;;;;;;;;;5014979;28;20210;-85
2023/01/19 20:36:31;;;;;;;18.10;13.47;;;;;;;;;;5015028;28;20623;-85
2023/01/19 20:38:58;;;;;;;17.17;11.43;;;;;;;;;;5016044;28;20214;-85
2023/01/19 20:41:25;;;;;;;19.20;12.37;;;;;;;;;;5015898;28;20247;-90
2023/01/19 20:43:53;;;;;;;18.00;11.57;;;;;;;;;;5017128;28;20249;-92
2023/01/19 20:46:20;;;;;;;16.63;10.70;;;;;;;;;;5017053;28;20248;-90
2023/01/19 20:48:51;;;;;;;18.27;12.07;;;;;;;;;;5016705;28;20216;-89
2023/01/19 20:51:19;;;;;;;14.47;10.90;;;;;;;;;;5015728;28;20709;-90
2023/01/19 20:53:46;;;;;;;15.60;11.17;;;;;;;;;;5016982;28;20207;-89
2023/01/19 20:56:14;;;;;;;15.00;10.70;;;;;;;;;;5015547;28;20246;-89
2023/01/19 20:58:42;;;;;;;15.97;11.13;;;;;;;;;;5016007;28;20214;-89
2023/01/19 21:01:13;;;;;;;17.43;11.00;;;;;;;;;;5015352;28;20647;-88
2023/01/19 21:03:40;;;;;;;17.23;12.03;;;;;;;;;;5015551;28;20202;-88
2023/01/19 21:06:09;;;;;;;14.93;12.00;;;;;;;;;;5015151;28;20240;-88
2023/01/19 21:08:36;;;;;;;14.43;11.13;;;;;;;;;;5015614;28;20211;-88
2023/01/19 21:11:04;;;;;;;16.53;13.13;;;;;;;;;;5014993;28;20616;-89
2023/01/19 21:13:31;;;;;;;16.10;11.57;;;;;;;;;;5004068;28;20222;-89
2023/01/19 21:15:58;;;;;;;17.37;11.17;;;;;;;;;;4995468;28;20235;-88
2023/01/19 21:18:26;;;;;;;17.20;10.70;;;;;;;;;;4995915;28;20231;-89
2023/01/19 21:20:54;;;;;;;18.77;11.53;;;;;;;;;;4994013;28;20660;-85
2023/01/19 21:23:22;;;;;;;19.90;12.47;;;;;;;;;;4995132;28;20214;-88
2023/01/19 21:25:49;;;;;;;15.20;11.70;;;;;;;;;;5012681;28;20240;-88
2023/01/19 21:28:17;;;;;;;24.10;13.60;;;;;;;;;;5013257;28;20663;-87
2023/01/19 21:30:44;;;;;;;23.37;14.87;;;;;;;;;;5034320;28;20319;-88
2023/01/19 21:33:11;;;;;;;22.13;13.40;;;;;;;;;;5035460;28;20621;-88
2023/01/19 21:35:38;;;;;;;14.17;11.37;;;;;;;;;;5035013;28;20241;-87
2023/01/19 21:38:06;;;;;;;24.73;14.30;;;;;;;;;;5035230;28;20221;-88
2023/01/19 21:40:37;;;;;;;17.13;12.57;;;;;;;;;;5034252;28;20248;-88
2023/01/19 21:43:04;;;;;;;17.97;12.60;;;;;;;;;;5035266;28;20379;-88
2023/01/19 21:45:31;;;;;;;17.80;11.30;;;;;;;;;;5034329;28;20241;-87
2023/01/19 21:47:58;;;;;;;17.30;11.37;;;;;;;;;;5034985;28;20214;-88
2023/01/19 21:50:25;;;;;;;16.90;11.43;;;;;;;;;;5034032;28;20268;-87
2023/01/19 21:52:52;;;;;;;16.57;11.77;;;;;;;;;;5034387;28;20212;-87
2023/01/19 21:55:19;;;;;;;23.13;12.53;;;;;;;;;;5034650;28;20735;-92
2023/01/19 21:57:53;;;;;;;17.80;12.80;;;;;;;;;;5028788;28;20204;-92
2023/01/19 22:00:20;;;;;;;16.97;12.23;;;;;;;;;;5014538;28;20233;-91
2023/01/19 22:02:48;;;;;;;23.20;12.27;;;;;;;;;;5005662;28;20689;-91
2023/01/19 22:05:15;;;;;;;15.60;12.27;;;;;;;;;;5015139;28;20269;-92
2023/01/19 22:07:42;;;;;;;17.10;12.03;;;;;;;;;;5015208;28;20884;-91
2023/01/19 22:10:10;;;;;;;16.27;11.60;;;;;;;;;;5014952;28;20245;-92
2023/01/19 22:12:39;;;;;;;15.60;11.20;;;;;;;;;;5015162;28;20211;-92
2023/01/19 22:15:08;;;;;;;18.53;11.97;;;;;;;;;;5014804;28;20665;-92
2023/01/19 22:17:35;;;;;;;15.97;11.87;;;;;;;;;;5015148;28;20213;-92
2023/01/19 22:20:03;;;;;;;17.60;13.43;;;;;;;;;;5014458;28;20238;-91
2023/01/19 22:22:32;;;;;;;18.57;12.53;;;;;;;;;;5015274;28;20247;-92
2023/01/19 22:24:59;;;;;;;16.90;12.87;;;;;;;;;;5014308;28;20238;-92
2023/01/19 22:27:27;;;;;;;16.57;12.70;;;;;;;;;;5015061;28;20209;-92
2023/01/19 22:29:54;;;;;;;16.50;11.53;;;;;;;;;;5014341;28;20265;-91
2023/01/19 22:32:22;;;;;;;15.97;11.37;;;;;;;;;;5014666;28;20210;-92
2023/01/19 22:34:49;;;;;;;18.23;11.70;;;;;;;;;;5014839;28;20233;-92
2023/01/19 22:37:16;;;;;;;17.17;12.10;;;;;;;;;;5021750;28;20230;-92
2023/01/19 22:39:43;;;;;;;17.73;12.80;;;;;;;;;;5021865;28;20218;-92
2023/01/19 22:42:10;;;;;;;18.90;12.23;;;;;;;;;;5021993;28;20206;-92
2023/01/19 22:44:38;;;;;;;17.03;12.67;;;;;;;;;;5017784;28;20214;-91
2023/01/19 22:47:05;;;;;;;24.10;13.23;;;;;;;;;;5018040;28;20206;-92
2023/01/19 22:49:33;;;;;;;18.13;12.57;;;;;;;;;;5017047;28;20211;-92
2023/01/19 22:52:00;;;;;;;18.90;13.47;;;;;;;;;;5015621;28;20266;-92
2023/01/19 22:54:28;;;;;;;19.23;12.87;;;;;;;;;;5015971;28;20207;-91
2023/01/19 22:56:55;;;;;;;23.43;13.87;;;;;;;;;;5015514;28;20342;-92
2023/01/19 22:59:22;;;;;;;23.07;13.77;;;;;;;;;;5015300;28;20214;-92
2023/01/19 23:01:50;;;;;;;20.07;13.97;;;;;;;;;;5015617;28;20228;-92
2023/01/19 23:04:17;;;;;;;19.43;12.83;;;;;;;;;;5014846;28;20221;-91
2023/01/19 23:06:49;;;;;;;20.20;13.83;;;;;;;;;;5014723;28;20246;-92
2023/01/19 23:09:16;;;;;;;18.43;12.43;;;;;;;;;;4995774;28;20195;-92
2023/01/19 23:11:44;;;;;;;21.83;12.60;;;;;;;;;;5013570;28;20238;-91
2023/01/19 23:14:14;;;;;;;18.53;12.47;;;;;;;;;;5015216;28;20214;-91
2023/01/19 23:16:41;;;;;;;22.80;14.80;;;;;;;;;;5014622;28;20234;-91
2023/01/19 23:19:08;;;;;;;22.30;14.80;;;;;;;;;;5015549;28;20210;-91
2023/01/19 23:21:35;;;;;;;21.00;13.63;;;;;;;;;;5014885;28;20237;-91
2023/01/19 23:24:04;;;;;;;21.30;14.60;;;;;;;;;;5014902;28;20214;-91
2023/01/19 23:26:36;;;;;;;26.00;15.07;;;;;;;;;;5014883;28;20235;-91
2023/01/19 23:29:04;;;;;;;24.07;15.37;;;;;;;;;;5014907;28;20209;-91
2023/01/19 23:31:32;;;;;;;19.47;14.20;;;;;;;;;;5014886;28;20234;-91
2023/01/19 23:33:59;;;;;;;23.67;15.80;;;;;;;;;;5014721;28;20205;-91
2023/01/19 23:36:28;;;;;;;22.23;15.27;;;;;;;;;;5014287;28;20240;-91
2023/01/19 23:38:55;;;;;;;22.77;15.47;;;;;;;;;;5014419;28;20210;-91
2023/01/19 23:41:25;;;;;;;23.03;14.87;;;;;;;;;;5013570;28;20262;-91
2023/01/19 23:43:52;;;;;;;23.80;14.60;;;;;;;;;;5014900;28;20214;-92
2023/01/19 23:46:19;;;;;;;20.77;14.07;;;;;;;;;;5017746;28;20239;-91
2023/01/19 23:48:47;;;;;;;22.07;14.77;;;;;;;;;;5019266;28;20642;-91
2023/01/19 23:51:15;;;;;;;21.43;15.43;;;;;;;;;;5017980;28;20241;-91
2023/01/19 23:53:42;;;;;;;21.70;13.97;;;;;;;;;;5018472;28;20216;-91
2023/01/19 23:56:10;;;;;;;18.53;14.27;;;;;;;;;;5017991;28;20229;-91
2023/01/19 23:58:38;;;;;;;19.93;13.83;;;;;;;;;;5018272;28;20213;-91
